Monday, November 20, 2017, 2:00 PM EST
Back to Local

KMVL, Morrisville Stowe State Airport

Location: Morrisville, VT, United States Lat: 44.533
Local Time: 2:00 PM EST (19:00 GMT) Lon: -72.617
Time Zone: US/Eastern Elev: 731 ft

Show me the last for .
Show Decoded

2017-11-20 13:36 METAR KMVL 201836Z AUTO 22004KT 2 1/2SM -SN BR FEW017 BKN025 OVC036 M06/M08
                 A2985 RMK AO2 P0000 T10561078 TSNO =
2017-11-20 13:22 METAR KMVL 201822Z AUTO 22006KT 1 1/2SM -SN BR FEW016 BKN023 OVC030 M06/M08
                 A2985 RMK AO2 P0000 T10561078 TSNO =
2017-11-20 13:08 METAR KMVL 201808Z AUTO 21008KT 1SM -SN BR BKN023 BKN030 OVC036 M05/M07 A2985
                 RMK AO2 P0000 T10501072 TSNO =
2017-11-20 12:54 METAR KMVL 201754Z AUTO 23006KT 1 3/4SM -SN BKN028 OVC035 M05/M08 A2985 RMK AO2
                 SNB08 SLP121 P0000 60000 T10501078 11044 21061 58003 TSNO =
2017-11-20 12:46 METAR KMVL 201746Z AUTO 00000KT 2SM -SN BKN028 OVC037 M05/M08 A2985 RMK AO2
                 SNB08 P0000 T10501083 TSNO =
2017-11-20 12:39 METAR KMVL 201739Z AUTO 32006KT 2 1/2SM -SN BKN030 OVC037 M05/M09 A2985 RMK AO2
                 SNB08 P0000 T10501089 TSNO 
2017-11-20 11:54 METAR KMVL 201654Z AUTO VRB04KT 9SM BKN046 OVC055 M05/M11 A2985 RMK AO2 SLP121
                 T10501106 TSNO $ =
2017-11-20 10:54 METAR KMVL 201554Z AUTO 26007KT 230V300 10SM SCT048 OVC075 M05/M12 A2987 RMK AO2
                 SLP125 T10501117 TSNO =
2017-11-20 09:54 METAR KMVL 201454Z AUTO VRB03KT 10SM FEW042 OVC070 M06/M12 A2986 RMK AO2 SLP124
                 60000 T10561122 51020 TSNO $ =
2017-11-19 20:54 METAR KMVL 200154Z AUTO 29009G17KT 260V330 8SM -SN OVC028 M02/M06 A2956 RMK AO2
                 SNB0057 SLP019 P0000 T10171061 TSNO =
2017-11-19 20:30 METAR KMVL 200130Z AUTO 32014G20KT 8SM -SN OVC028 M02/M06 A2956 RMK AO2 SNB0057
                 P0000 T10171061 TSNO =
2017-11-19 19:54 METAR KMVL 200054Z AUTO 30009G20KT 270V330 10SM OVC032 M01/M07 A2954 RMK AO2
                 SNB02E22 SLP012 P0000 T10111067 TSNO =
2017-11-19 19:35 METAR KMVL 200035Z AUTO 31010G21KT 270V330 10SM OVC030 M01/M06 A2954 RMK AO2
                 SNB02E22 P0000 T10111061 TSNO =
2017-11-19 19:01 METAR KMVL 200001Z AUTO 31006G15KT 10SM OVC029 M02/M06 A2952 RMK AO2 T10171056
                 TSNO =

Support USWX by starting your Amazon purchase here.